YCOY weather

Coral Bay Airport
Western Australia, Australia

Public forecast

Using degrees Celsius for public forecast. Weather courtesy of forecast.io.

Closest aviation weather report (METAR) to Coral Bay Airport

Closest report is Learmonth Airport, 56.4 nm (104.5 km) NNE. Retrieved 2019/10/18 10:30 UTC (4 minutes ago):

YPLM 181030Z AUTO 27009KT 9999 // NCD 28/11 Q1012 RF000/0000

Closest aviation forecast (TAF) to Coral Bay Airport

Closest forecast is Learmonth Airport, 56.4 nm (104.5 km) NNE. Retrieved 2019/10/18 06:33 UTC (4 hours ago):

TAF YPLM 180504Z 1806/1906 04010KT CAVOK FM180700 27014KT CAVOK FM181200 20010KT CAVOK FM190200 05010KT CAVOK